createdAt,value
2023-04-22T00:00:02.107Z,1.37
2023-04-22T00:02:30.688Z,1.40
2023-04-22T00:05:01.482Z,1.80
2023-04-22T00:07:30.026Z,1.10
2023-04-22T00:09:58.424Z,1.07
2023-04-22T00:12:26.863Z,1.60
2023-04-22T00:14:55.373Z,1.43
2023-04-22T00:17:24.909Z,1.57
2023-04-22T00:19:54.635Z,1.80
2023-04-22T00:22:24.505Z,1.87
2023-04-22T00:24:52.939Z,1.47
2023-04-22T00:27:21.315Z,1.37
2023-04-22T00:29:49.837Z,1.70
2023-04-22T00:32:18.284Z,1.57
2023-04-22T00:34:46.748Z,1.40
2023-04-22T00:37:15.199Z,1.60
2023-04-22T00:39:44.962Z,1.70
2023-04-22T00:42:13.531Z,1.73
2023-04-22T00:44:42.730Z,1.30
2023-04-22T00:47:11.885Z,1.40
2023-04-22T00:49:41.279Z,1.63
2023-04-22T00:52:09.771Z,1.53
2023-04-22T00:54:38.457Z,1.97
2023-04-22T00:57:08.253Z,1.47
2023-04-22T00:59:36.773Z,1.93
2023-04-22T01:02:05.897Z,1.40
2023-04-22T01:04:34.253Z,1.23
2023-04-22T01:07:03.406Z,1.33
2023-04-22T01:09:32.292Z,1.60
2023-04-22T01:12:01.492Z,1.50
2023-04-22T01:14:31.252Z,1.10
2023-04-22T01:16:59.706Z,1.40
2023-04-22T01:19:29.432Z,1.30
2023-04-22T01:21:58.252Z,1.43
2023-04-22T01:24:27.960Z,1.47
2023-04-22T01:26:56.744Z,1.20
2023-04-22T01:29:25.108Z,1.30
2023-04-22T01:31:53.701Z,1.30
2023-04-22T01:34:22.385Z,1.57
2023-04-22T01:36:51.431Z,1.50
2023-04-22T01:39:19.939Z,1.40
2023-04-22T01:41:49.918Z,1.47
2023-04-22T01:44:19.862Z,1.47
2023-04-22T01:46:48.213Z,1.27
2023-04-22T01:49:16.544Z,1.67
2023-04-22T01:51:44.937Z,1.67
2023-04-22T01:54:13.501Z,1.20
2023-04-22T01:56:44.055Z,1.60
2023-04-22T01:59:13.843Z,1.30
2023-04-22T02:01:42.225Z,1.20
2023-04-22T02:04:10.816Z,1.40
2023-04-22T02:06:39.226Z,1.17
2023-04-22T02:09:08.074Z,1.27
2023-04-22T02:11:36.713Z,1.57
2023-04-22T02:14:05.249Z,1.40
2023-04-22T02:16:35.056Z,1.60
2023-04-22T02:19:03.443Z,1.70
2023-04-22T02:21:32.680Z,1.37
2023-04-22T02:24:01.115Z,1.70
2023-04-22T02:26:31.027Z,1.50
2023-04-22T02:28:59.348Z,1.37
2023-04-22T02:31:27.825Z,1.40
2023-04-22T02:33:57.582Z,1.67
2023-04-22T02:36:27.722Z,1.60
2023-04-22T02:38:56.249Z,1.50
2023-04-22T02:41:24.699Z,1.10
2023-04-22T02:43:53.078Z,1.47
2023-04-22T02:46:21.483Z,1.40
2023-04-22T02:48:49.863Z,1.33
2023-04-22T02:51:19.736Z,1.10
2023-04-22T02:53:48.099Z,1.30
2023-04-22T02:56:16.483Z,1.17
2023-04-22T02:58:44.920Z,1.37
2023-04-22T03:01:13.393Z,1.40
2023-04-22T03:03:44.110Z,1.47
2023-04-22T03:06:12.889Z,1.30
2023-04-22T03:08:42.686Z,1.40
2023-04-22T03:11:11.152Z,1.40
2023-04-22T03:13:39.467Z,1.53
2023-04-22T03:16:08.033Z,1.60
2023-04-22T03:18:36.450Z,1.70
2023-04-22T03:21:04.825Z,1.10
2023-04-22T03:23:33.646Z,1.37
2023-04-22T03:26:03.426Z,1.10
2023-04-22T03:28:31.842Z,1.50
2023-04-22T03:31:00.336Z,1.57
2023-04-22T03:33:28.652Z,1.70
2023-04-22T03:35:57.144Z,1.20
2023-04-22T03:38:25.478Z,1.40
2023-04-22T03:40:53.886Z,1.60
2023-04-22T03:43:23.660Z,1.20
2023-04-22T03:45:53.225Z,1.33
2023-04-22T03:48:21.647Z,1.40
2023-04-22T03:50:50.108Z,2.10
2023-04-22T03:53:18.576Z,1.70
2023-04-22T03:55:46.995Z,1.50
2023-04-22T03:58:15.369Z,1.70
2023-04-22T04:00:45.160Z,1.43
2023-04-22T04:03:13.572Z,1.63
2023-04-22T04:05:42.131Z,1.43
2023-04-22T04:08:10.522Z,1.40
2023-04-22T04:10:38.952Z,1.23
2023-04-22T04:13:07.468Z,1.50
2023-04-22T04:15:36.930Z,1.40
2023-04-22T04:18:06.712Z,1.57
2023-04-22T04:20:35.170Z,1.47
2023-04-22T04:23:03.588Z,1.50
2023-04-22T04:25:38.944Z,1.47
2023-04-22T04:28:09.482Z,1.50
2023-04-22T04:30:37.998Z,1.10
2023-04-22T04:33:07.960Z,1.30
2023-04-22T04:35:37.595Z,1.30
2023-04-22T04:38:06.486Z,1.70
2023-04-22T04:40:35.881Z,1.53
2023-04-22T04:43:08.330Z,1.53
2023-04-22T04:45:37.801Z,1.47
2023-04-22T04:48:07.150Z,1.67
2023-04-22T04:50:36.993Z,1.53
2023-04-22T04:53:05.448Z,1.20
2023-04-22T04:55:33.779Z,1.40
2023-04-22T04:58:02.257Z,1.20
2023-04-22T05:00:30.848Z,1.30
2023-04-22T05:02:59.399Z,1.10
2023-04-22T05:05:28.058Z,1.33
2023-04-22T05:07:57.818Z,1.20
2023-04-22T05:10:26.299Z,1.40
2023-04-22T05:12:54.649Z,1.93
2023-04-22T05:15:23.198Z,1.43
2023-04-22T05:17:51.688Z,1.10
2023-04-22T05:20:20.188Z,1.13
2023-04-22T05:22:48.579Z,1.30
2023-04-22T05:25:18.612Z,1.53
2023-04-22T05:27:47.042Z,1.13
2023-04-22T05:30:15.686Z,1.80
2023-04-22T05:32:44.164Z,1.30
2023-04-22T05:35:12.804Z,1.90
2023-04-22T05:37:41.202Z,1.30
2023-04-22T05:40:10.323Z,1.43
2023-04-22T05:42:40.085Z,1.57
2023-04-22T05:45:09.186Z,1.57
2023-04-22T05:47:37.773Z,1.17
2023-04-22T05:50:06.411Z,1.67
2023-04-22T05:52:34.844Z,1.60
2023-04-22T05:55:03.335Z,1.30
2023-04-22T05:57:31.953Z,1.40
2023-04-22T06:00:02.088Z,1.13
2023-04-22T06:02:30.853Z,1.30
2023-04-22T06:04:59.675Z,1.43
2023-04-22T06:07:28.428Z,1.10
2023-04-22T06:10:04.075Z,1.37
2023-04-22T06:12:34.691Z,1.10
2023-04-22T06:15:04.488Z,1.03
2023-04-22T06:17:32.895Z,1.13
2023-04-22T06:20:01.331Z,1.40
2023-04-22T06:22:29.710Z,1.00
2023-04-22T06:24:58.465Z,1.10
2023-04-22T06:27:26.963Z,1.00
2023-04-22T06:29:55.359Z,1.27
2023-04-22T06:32:25.127Z,0.90
2023-04-22T06:34:53.489Z,1.30
2023-04-22T06:37:21.869Z,0.90
2023-04-22T06:39:50.449Z,1.00
2023-04-22T06:42:18.984Z,1.00
2023-04-22T06:44:47.366Z,1.27
2023-04-22T06:47:15.811Z,0.90
2023-04-22T06:49:45.529Z,1.00
2023-04-22T06:52:13.903Z,1.03
2023-04-22T06:54:42.335Z,0.80
2023-04-22T06:57:10.728Z,1.03
2023-04-22T06:59:39.359Z,0.80
2023-04-22T07:02:09.066Z,0.90
2023-04-22T07:04:37.667Z,1.10
2023-04-22T07:07:07.643Z,0.90
2023-04-22T07:09:36.352Z,1.00
2023-04-22T07:12:04.813Z,0.90
2023-04-22T07:14:33.686Z,1.00
2023-04-22T07:17:02.132Z,0.77
2023-04-22T07:19:32.558Z,0.90
2023-04-22T07:22:03.336Z,1.30
2023-04-22T07:24:33.118Z,1.20
2023-04-22T07:27:02.406Z,0.80
2023-04-22T07:29:30.877Z,0.90
2023-04-22T07:31:59.257Z,1.20
2023-04-22T07:34:27.659Z,0.90
2023-04-22T07:36:56.173Z,0.80
2023-04-22T07:39:24.651Z,1.10
2023-04-22T07:41:56.466Z,0.80
2023-04-22T07:44:24.831Z,1.03
2023-04-22T07:46:53.998Z,0.90
2023-04-22T07:49:22.417Z,0.97
2023-04-22T07:51:50.744Z,0.90
2023-04-22T07:54:19.142Z,0.90
2023-04-22T07:56:47.671Z,1.07
2023-04-22T07:59:17.424Z,0.83
2023-04-22T08:01:47.146Z,0.97
2023-04-22T08:04:15.741Z,0.93
2023-04-22T08:06:44.489Z,0.80
2023-04-22T08:09:12.951Z,0.90
2023-04-22T08:11:41.347Z,0.90
2023-04-22T08:14:09.841Z,0.90
2023-04-22T08:16:39.900Z,1.20
2023-04-22T08:19:08.329Z,0.80
2023-04-22T08:21:37.279Z,0.60
2023-04-22T08:24:05.909Z,0.67
2023-04-22T08:26:34.423Z,0.73
2023-04-22T08:29:02.945Z,0.70
2023-04-22T08:31:31.455Z,0.93
2023-04-22T08:34:01.436Z,0.90
2023-04-22T08:36:29.897Z,0.67
2023-04-22T08:38:58.329Z,0.83
2023-04-22T08:41:27.910Z,0.60
2023-04-22T08:43:56.364Z,0.70
2023-04-22T08:46:25.325Z,0.70
2023-04-22T08:48:54.606Z,0.80
2023-04-22T08:51:24.465Z,1.00
2023-04-22T08:53:52.908Z,0.80
2023-04-22T08:56:22.245Z,0.90
2023-04-22T08:58:50.994Z,0.73
2023-04-22T09:01:19.489Z,0.70
2023-04-22T09:03:48.147Z,0.77
2023-04-22T09:06:18.073Z,0.77
2023-04-22T09:08:48.153Z,1.15
2023-04-22T09:11:16.592Z,0.70
2023-04-22T09:13:44.958Z,0.75
2023-04-22T09:16:13.396Z,1.00
2023-04-22T09:18:42.338Z,0.80
2023-04-22T09:21:11.054Z,1.00
2023-04-22T09:23:46.034Z,0.80
2023-04-22T09:26:18.258Z,0.77
2023-04-22T09:28:56.490Z,1.10
2023-04-22T09:31:25.053Z,0.80
2023-04-22T09:33:54.367Z,0.80
2023-04-22T09:36:24.540Z,0.85
2023-04-22T09:38:56.161Z,0.60
2023-04-22T09:41:32.447Z,0.70
2023-04-22T09:44:01.949Z,0.80
2023-04-22T09:46:31.096Z,0.80
2023-04-22T09:49:00.566Z,0.80
2023-04-22T09:51:29.545Z,0.88
2023-04-22T09:54:01.864Z,0.80
2023-04-22T09:56:44.600Z,0.82
2023-04-22T09:59:13.095Z,0.90
2023-04-22T10:01:42.254Z,1.00
2023-04-22T10:04:11.358Z,0.80
2023-04-22T10:06:39.888Z,0.82
2023-04-22T10:09:09.519Z,0.70
2023-04-22T10:11:38.275Z,0.88
2023-04-22T10:14:10.713Z,0.80
2023-04-22T10:16:40.721Z,0.80
2023-04-22T10:19:10.961Z,0.90
2023-04-22T10:21:42.775Z,0.60
2023-04-22T10:24:16.588Z,0.90
2023-04-22T10:26:49.741Z,0.90
2023-04-22T10:29:20.261Z,0.70
2023-04-22T10:31:53.818Z,0.80
2023-04-22T10:34:22.174Z,0.80
2023-04-22T10:36:57.988Z,0.90
2023-04-22T10:39:27.002Z,0.70
2023-04-22T10:41:56.495Z,0.90
2023-04-22T10:44:30.201Z,0.70
2023-04-22T10:46:59.756Z,0.80
2023-04-22T10:49:28.393Z,0.90
2023-04-22T10:51:58.369Z,0.90
2023-04-22T10:54:45.394Z,0.97
2023-04-22T10:57:15.471Z,1.07
2023-04-22T10:59:50.246Z,1.20
2023-04-22T11:02:19.162Z,0.90
2023-04-22T11:04:47.751Z,1.27
2023-04-22T11:07:17.070Z,0.93
2023-04-22T11:09:46.812Z,1.20
2023-04-22T11:12:32.911Z,1.10
2023-04-22T11:15:03.131Z,1.27
2023-04-22T11:17:32.627Z,1.07
2023-04-22T11:20:01.128Z,1.40
2023-04-22T11:22:29.745Z,1.00
2023-04-22T11:24:58.102Z,1.00
2023-04-22T11:27:27.332Z,1.30
2023-04-22T11:30:03.789Z,1.20
2023-04-22T11:32:32.574Z,1.10
2023-04-22T11:35:04.676Z,1.20
2023-04-22T11:37:33.135Z,1.10
2023-04-22T11:40:27.365Z,1.10
2023-04-22T11:42:50.919Z,1.27
2023-04-22T11:45:20.988Z,1.20
2023-04-22T11:47:50.562Z,1.30
2023-04-22T11:50:20.076Z,1.10
2023-04-22T11:52:49.973Z,1.10
2023-04-22T11:55:19.242Z,1.20
2023-04-22T11:57:48.334Z,1.20
2023-04-22T12:00:17.741Z,1.10
2023-04-22T12:02:56.875Z,0.90
2023-04-22T12:05:34.839Z,1.43
2023-04-22T12:08:03.592Z,1.27
2023-04-22T12:10:32.165Z,1.30
2023-04-22T12:13:01.854Z,1.30
2023-04-22T12:15:39.314Z,1.23
2023-04-22T12:18:09.248Z,1.00
2023-04-22T12:20:37.898Z,1.30
2023-04-22T12:23:06.427Z,1.40
2023-04-22T12:25:34.837Z,1.10
2023-04-22T12:28:03.157Z,1.27
2023-04-22T12:30:31.539Z,1.67
2023-04-22T12:32:59.923Z,1.70
2023-04-22T12:35:29.649Z,1.50
2023-04-22T12:37:58.055Z,1.10
2023-04-22T12:40:26.347Z,1.00
2023-04-22T12:42:54.816Z,1.10
2023-04-22T12:45:24.731Z,1.40
2023-04-22T12:47:55.417Z,1.30
2023-04-22T12:50:23.992Z,1.40
2023-04-22T12:52:53.810Z,1.23
2023-04-22T12:55:22.239Z,1.20
2023-04-22T12:57:51.341Z,1.00
2023-04-22T13:00:19.692Z,0.97
2023-04-22T13:02:49.045Z,1.20
2023-04-22T13:05:17.951Z,1.03
2023-04-22T13:07:53.237Z,1.17
2023-04-22T13:10:30.276Z,0.90
2023-04-22T13:13:09.720Z,1.13
2023-04-22T13:15:44.230Z,1.13
2023-04-22T13:18:12.623Z,1.20
2023-04-22T13:20:41.805Z,1.03
2023-04-22T13:23:10.754Z,1.10
2023-04-22T13:25:40.514Z,1.30
2023-04-22T13:28:08.918Z,1.20
2023-04-22T13:30:37.937Z,1.53
2023-04-22T13:33:06.412Z,1.17
2023-04-22T13:35:35.046Z,1.33
2023-04-22T13:38:03.374Z,1.13
2023-04-22T13:40:31.860Z,1.20
2023-04-22T13:43:01.808Z,1.43
2023-04-22T13:45:30.365Z,1.30
2023-04-22T13:47:58.792Z,1.10
2023-04-22T13:50:27.213Z,1.30
2023-04-22T13:52:55.759Z,1.07
2023-04-22T13:55:24.140Z,1.40
2023-04-22T13:57:52.921Z,1.10
2023-04-22T14:00:22.863Z,1.30
2023-04-22T14:02:51.323Z,1.07
2023-04-22T14:05:19.831Z,1.23
2023-04-22T14:07:48.220Z,1.53
2023-04-22T14:10:20.263Z,1.20
2023-04-22T14:12:49.284Z,1.40
2023-04-22T14:15:17.714Z,1.30
2023-04-22T14:17:49.497Z,1.30
2023-04-22T14:20:18.184Z,1.10
2023-04-22T14:22:46.601Z,1.30
2023-04-22T14:25:15.124Z,1.20
2023-04-22T14:27:43.572Z,1.10
2023-04-22T14:30:12.568Z,1.20
2023-04-22T14:32:41.097Z,1.47
2023-04-22T14:35:11.704Z,1.53
2023-04-22T14:37:41.434Z,1.20
2023-04-22T14:40:12.071Z,1.30
2023-04-22T14:42:40.877Z,1.00
2023-04-22T14:45:09.790Z,1.40
2023-04-22T14:47:38.289Z,1.43
2023-04-22T14:50:07.199Z,1.43
2023-04-22T14:52:37.005Z,1.10
2023-04-22T14:55:15.581Z,1.23
2023-04-22T14:57:48.414Z,1.10
2023-04-22T15:00:16.990Z,1.03
2023-04-22T15:02:45.933Z,1.40
2023-04-22T15:05:14.386Z,1.13
2023-04-22T15:07:44.233Z,1.10
2023-04-22T15:10:14.315Z,1.20
2023-04-22T15:12:42.672Z,1.10
2023-04-22T15:15:13.300Z,1.33
2023-04-22T15:17:41.980Z,1.20
2023-04-22T15:20:10.837Z,1.33
2023-04-22T15:22:40.979Z,1.13
2023-04-22T15:25:11.584Z,1.47
2023-04-22T15:27:40.124Z,1.30
2023-04-22T15:30:10.869Z,1.20
2023-04-22T15:32:40.100Z,1.40
2023-04-22T15:35:09.448Z,1.50
2023-04-22T15:37:37.871Z,1.20
2023-04-22T15:40:07.778Z,1.20
2023-04-22T15:42:37.454Z,1.30
2023-04-22T15:45:06.158Z,1.43
2023-04-22T15:47:34.743Z,1.33
2023-04-22T15:50:06.645Z,1.33
2023-04-22T15:52:35.390Z,1.40
2023-04-22T15:55:03.735Z,1.60
2023-04-22T15:57:34.661Z,1.80
2023-04-22T16:00:11.725Z,1.70
2023-04-22T16:02:41.151Z,1.00
2023-04-22T16:05:10.100Z,1.47
2023-04-22T16:07:38.489Z,1.40
2023-04-22T16:10:07.261Z,1.23
2023-04-22T16:12:35.717Z,1.70
2023-04-22T16:15:06.867Z,1.60
2023-04-22T16:17:35.677Z,1.70
2023-04-22T16:20:05.872Z,1.50
2023-04-22T16:22:34.457Z,1.30
2023-04-22T16:25:02.893Z,1.63
2023-04-22T16:27:31.820Z,1.70
2023-04-22T16:30:00.307Z,2.60
2023-04-22T16:32:30.087Z,2.10
2023-04-22T16:34:58.594Z,2.00
2023-04-22T16:37:27.496Z,1.53
2023-04-22T16:39:56.163Z,1.67
2023-04-22T16:42:24.670Z,1.63
2023-04-22T16:44:53.054Z,1.60
2023-04-22T16:47:21.376Z,1.73
2023-04-22T16:49:51.170Z,1.57
2023-04-22T16:52:19.701Z,1.70
2023-04-22T16:54:48.059Z,1.87
2023-04-22T16:57:16.482Z,1.43
2023-04-22T16:59:44.932Z,1.30
2023-04-22T17:02:13.395Z,1.40
2023-04-22T17:04:41.835Z,1.93
2023-04-22T17:07:11.639Z,1.30
2023-04-22T17:09:40.104Z,1.70
2023-04-22T17:12:08.809Z,1.50
2023-04-22T17:14:37.320Z,1.90
2023-04-22T17:17:05.739Z,1.80
2023-04-22T17:19:34.241Z,1.90
2023-04-22T17:22:02.600Z,1.77
2023-04-22T17:24:32.452Z,1.40
2023-04-22T17:27:01.619Z,1.77
2023-04-22T17:29:30.193Z,1.60
2023-04-22T17:31:58.560Z,1.63
2023-04-22T17:34:27.060Z,1.67
2023-04-22T17:36:55.675Z,1.47
2023-04-22T17:39:24.067Z,1.50
2023-04-22T17:41:53.901Z,1.70
2023-04-22T17:44:22.327Z,1.47
2023-04-22T17:46:50.872Z,1.43
2023-04-22T17:49:19.271Z,1.40
2023-04-22T17:51:47.609Z,1.43
2023-04-22T17:54:16.260Z,1.60
2023-04-22T17:56:44.614Z,1.50
2023-04-22T17:59:14.431Z,1.77
2023-04-22T18:01:43.037Z,1.60
2023-04-22T18:04:11.495Z,1.90
2023-04-22T18:06:40.048Z,1.57
2023-04-22T18:09:08.403Z,1.63
2023-04-22T18:11:36.909Z,1.60
2023-04-22T18:14:05.307Z,1.70
2023-04-22T18:16:35.097Z,7.67
2023-04-22T18:19:06.621Z,12.80
2023-04-22T18:21:34.999Z,8.40
2023-04-22T18:24:03.821Z,2.13
2023-04-22T18:26:32.380Z,1.57
2023-04-22T18:29:00.911Z,1.70
2023-04-22T18:31:29.313Z,1.60
2023-04-22T18:33:59.247Z,4.30
2023-04-22T18:36:27.579Z,60.13
2023-04-22T18:38:56.038Z,11.33
2023-04-22T18:41:25.296Z,93.53
2023-04-22T18:43:54.106Z,116.33
2023-04-22T18:46:22.672Z,49.87
2023-04-22T18:48:51.182Z,84.03
2023-04-22T18:51:20.943Z,93.57
2023-04-22T18:53:50.323Z,100.37
2023-04-22T18:56:18.714Z,104.63
2023-04-22T18:58:47.190Z,35.03
2023-04-22T19:01:16.321Z,19.43
2023-04-22T19:03:46.132Z,8.90
2023-04-22T19:06:14.617Z,2.70
2023-04-22T19:08:44.430Z,1.80
2023-04-22T19:11:12.833Z,1.43
2023-04-22T19:13:41.166Z,34.70
2023-04-22T19:16:09.788Z,47.80
2023-04-22T19:18:38.568Z,43.17
2023-04-22T19:21:07.205Z,22.53
2023-04-22T19:23:36.138Z,5.63
2023-04-22T19:26:05.900Z,48.23
2023-04-22T19:28:34.335Z,17.20
2023-04-22T19:31:02.757Z,22.33
2023-04-22T19:33:31.185Z,25.40
2023-04-22T19:35:59.615Z,2.53
2023-04-22T19:38:28.158Z,2.43
2023-04-22T19:40:56.972Z,2.23
2023-04-22T19:43:26.802Z,2.40
2023-04-22T19:45:55.179Z,1.80
2023-04-22T19:48:24.062Z,2.03
2023-04-22T19:50:52.692Z,2.73
2023-04-22T19:53:21.745Z,2.07
2023-04-22T19:55:50.546Z,2.53
2023-04-22T19:58:19.014Z,2.10
2023-04-22T20:00:49.402Z,2.40
2023-04-22T20:03:17.913Z,1.97
2023-04-22T20:05:46.614Z,2.20
2023-04-22T20:08:15.458Z,2.10
2023-04-22T20:10:44.701Z,2.40
2023-04-22T20:13:13.164Z,1.90
2023-04-22T20:15:41.749Z,2.20
2023-04-22T20:18:12.098Z,2.47
2023-04-22T20:20:44.998Z,2.10
2023-04-22T20:23:15.709Z,2.10
2023-04-22T20:25:45.676Z,2.20
2023-04-22T20:28:14.321Z,2.60
2023-04-22T20:30:43.003Z,2.53
2023-04-22T20:33:15.861Z,2.50
2023-04-22T20:35:46.073Z,9.80
2023-04-22T20:38:15.168Z,4.60
2023-04-22T20:40:44.702Z,7.47
2023-04-22T20:43:13.998Z,22.63
2023-04-22T20:45:43.279Z,12.80
2023-04-22T20:48:13.263Z,5.00
2023-04-22T20:50:41.795Z,3.30
2023-04-22T20:53:10.178Z,2.17
2023-04-22T20:55:38.697Z,1.97
2023-04-22T20:58:07.060Z,2.57
2023-04-22T21:00:35.648Z,2.43
2023-04-22T21:03:05.301Z,1.80
2023-04-22T21:05:40.837Z,1.77
2023-04-22T21:08:16.490Z,1.80
2023-04-22T21:10:45.013Z,2.10
2023-04-22T21:13:14.778Z,2.17
2023-04-22T21:15:46.169Z,2.30
2023-04-22T21:18:16.221Z,2.10
2023-04-22T21:20:46.919Z,2.53
2023-04-22T21:23:15.463Z,2.00
2023-04-22T21:25:43.984Z,1.90
2023-04-22T21:28:12.770Z,2.30
2023-04-22T21:30:41.456Z,1.63
2023-04-22T21:33:09.980Z,2.60
2023-04-22T21:35:39.244Z,2.07
2023-04-22T21:38:09.404Z,2.03
2023-04-22T21:40:38.038Z,2.80
2023-04-22T21:43:06.438Z,2.20
2023-04-22T21:45:34.878Z,2.40
2023-04-22T21:48:04.017Z,1.93
2023-04-22T21:50:33.066Z,2.50
2023-04-22T21:53:01.499Z,1.87
2023-04-22T21:55:31.385Z,2.30
2023-04-22T21:57:59.813Z,2.27
2023-04-22T22:00:28.376Z,2.50
2023-04-22T22:02:56.959Z,2.20
2023-04-22T22:05:25.374Z,2.03
2023-04-22T22:07:55.390Z,2.03
2023-04-22T22:10:24.271Z,2.67
2023-04-22T22:12:54.090Z,2.47
2023-04-22T22:15:22.590Z,2.00
2023-04-22T22:17:51.399Z,2.63
2023-04-22T22:20:20.376Z,2.20
2023-04-22T22:22:49.208Z,2.80
2023-04-22T22:25:18.044Z,2.30
2023-04-22T22:27:47.285Z,2.40
2023-04-22T22:30:17.240Z,2.20
2023-04-22T22:32:45.808Z,2.97
2023-04-22T22:35:14.436Z,2.00
2023-04-22T22:37:42.886Z,2.50
2023-04-22T22:40:11.733Z,2.27
2023-04-22T22:42:40.210Z,2.23
2023-04-22T22:45:09.145Z,2.60
2023-04-22T22:47:39.040Z,2.53
2023-04-22T22:50:08.242Z,2.60
2023-04-22T22:52:36.681Z,2.07
2023-04-22T22:55:05.085Z,2.57
2023-04-22T22:57:33.494Z,2.60
2023-04-22T23:00:01.843Z,2.20
2023-04-22T23:02:30.373Z,2.73
2023-04-22T23:05:00.138Z,2.03
2023-04-22T23:07:28.549Z,3.10
2023-04-22T23:09:56.844Z,2.73
2023-04-22T23:12:25.150Z,2.63
2023-04-22T23:14:54.651Z,2.40
2023-04-22T23:17:23.000Z,2.67
2023-04-22T23:19:52.957Z,2.20
2023-04-22T23:22:23.263Z,2.67
2023-04-22T23:24:51.960Z,2.57
2023-04-22T23:27:20.937Z,2.40
2023-04-22T23:29:49.575Z,2.80
2023-04-22T23:32:21.580Z,2.33
2023-04-22T23:34:51.124Z,2.30
2023-04-22T23:37:20.763Z,2.70
2023-04-22T23:39:50.480Z,2.40
2023-04-22T23:42:18.939Z,2.90
2023-04-22T23:44:47.435Z,2.70
2023-04-22T23:47:15.766Z,2.80
2023-04-22T23:49:44.202Z,2.10
2023-04-22T23:52:14.116Z,2.50
2023-04-22T23:54:44.740Z,3.00
2023-04-22T23:57:14.928Z,2.77
2023-04-22T23:59:43.569Z,2.50
